createdAt,value
2022-11-22T00:02:59.900Z,1.68
2022-11-22T00:08:01.847Z,1.62
2022-11-22T00:13:04.925Z,1.60
2022-11-22T00:18:06.905Z,1.57
2022-11-22T00:23:08.612Z,1.53
2022-11-22T00:28:10.527Z,1.49
2022-11-22T00:33:12.381Z,1.46
2022-11-22T00:38:14.268Z,1.43
2022-11-22T00:43:16.065Z,1.42
2022-11-22T00:48:18.359Z,1.39
2022-11-22T00:53:20.417Z,1.37
2022-11-22T00:58:22.541Z,1.32
2022-11-22T01:03:25.173Z,1.30
2022-11-22T01:08:27.390Z,1.26
2022-11-22T01:13:29.920Z,1.22
2022-11-22T01:18:32.156Z,1.21
2022-11-22T01:23:35.732Z,1.20
2022-11-22T01:28:37.581Z,1.19
2022-11-22T01:33:39.313Z,1.15
2022-11-22T01:38:41.137Z,1.09
2022-11-22T01:43:43.245Z,1.06
2022-11-22T01:48:48.117Z,1.06
2022-11-22T01:53:51.454Z,1.06
2022-11-22T01:59:00.227Z,1.06
2022-11-22T02:04:04.748Z,1.06
2022-11-22T02:09:14.665Z,1.07
2022-11-22T02:14:19.660Z,1.07
2022-11-22T02:19:38.221Z,1.04
2022-11-22T02:24:47.153Z,1.02
2022-11-22T02:29:49.064Z,0.97
2022-11-22T02:34:51.515Z,0.97
2022-11-22T02:39:58.768Z,1.02
2022-11-22T02:45:00.667Z,1.04
2022-11-22T02:50:02.533Z,1.04
2022-11-22T02:55:04.803Z,1.00
2022-11-22T03:00:07.500Z,0.95
2022-11-22T03:05:12.496Z,0.95
2022-11-22T03:10:14.695Z,0.94
2022-11-22T03:15:16.476Z,0.94
2022-11-22T03:20:18.630Z,0.95
2022-11-22T03:25:20.763Z,0.97
2022-11-22T03:30:23.180Z,0.98
2022-11-22T03:35:25.075Z,1.00
2022-11-22T03:40:26.862Z,1.01
2022-11-22T03:45:29.459Z,1.04
2022-11-22T03:50:31.706Z,1.03
2022-11-22T03:55:33.939Z,1.04
2022-11-22T04:00:36.138Z,1.04
2022-11-22T04:05:37.955Z,1.08
2022-11-22T04:10:39.662Z,1.11
2022-11-22T04:15:41.520Z,1.14
2022-11-22T04:21:02.024Z,1.17
2022-11-22T04:26:03.784Z,1.20
2022-11-22T04:31:23.997Z,1.25
2022-11-22T04:36:25.798Z,1.33
2022-11-22T04:41:27.626Z,1.39
2022-11-22T04:46:31.546Z,1.45
2022-11-22T04:51:51.669Z,1.53
2022-11-22T04:56:53.549Z,1.58
2022-11-22T05:01:55.540Z,1.59
2022-11-22T05:06:57.416Z,1.61
2022-11-22T05:11:59.509Z,1.61
2022-11-22T05:17:01.564Z,1.62
2022-11-22T05:22:03.421Z,1.62
2022-11-22T05:27:05.293Z,1.62
2022-11-22T05:32:07.069Z,1.62
2022-11-22T05:37:08.891Z,1.64
2022-11-22T05:42:10.860Z,1.67
2022-11-22T05:47:12.887Z,1.70
2022-11-22T05:52:14.863Z,1.73
2022-11-22T05:57:16.830Z,1.77
2022-11-22T06:02:18.940Z,1.79
2022-11-22T06:07:20.916Z,1.81
2022-11-22T06:12:23.245Z,1.85
2022-11-22T06:17:25.200Z,1.89
2022-11-22T06:22:27.656Z,1.92
2022-11-22T06:27:30.164Z,1.95
2022-11-22T06:32:35.282Z,1.98
2022-11-22T06:37:37.226Z,2.00
2022-11-22T06:42:39.098Z,2.02
2022-11-22T06:47:41.243Z,2.03
2022-11-22T06:52:43.398Z,2.06
2022-11-22T06:57:50.937Z,2.07
2022-11-22T07:02:53.453Z,2.09
2022-11-22T07:08:04.610Z,2.11
2022-11-22T07:13:09.526Z,2.14
2022-11-22T07:18:11.789Z,2.15
2022-11-22T07:23:15.850Z,2.19
2022-11-22T07:28:17.783Z,2.20
2022-11-22T07:33:20.042Z,2.21
2022-11-22T07:38:22.068Z,2.23
2022-11-22T07:43:25.186Z,2.25
2022-11-22T07:48:27.365Z,2.29
2022-11-22T07:53:30.391Z,2.31
2022-11-22T07:58:34.273Z,2.34
2022-11-22T08:03:36.996Z,2.37
2022-11-22T08:08:39.558Z,2.41
2022-11-22T08:13:41.527Z,2.45
2022-11-22T08:18:48.884Z,2.50
2022-11-22T08:23:50.721Z,2.56
2022-11-22T08:28:52.612Z,2.60
2022-11-22T08:33:54.470Z,2.67
2022-11-22T08:38:56.508Z,2.72
2022-11-22T08:43:58.461Z,2.80
2022-11-22T08:49:00.301Z,2.84
2022-11-22T08:54:02.109Z,2.88
2022-11-22T08:59:04.310Z,2.95
2022-11-22T09:04:06.211Z,3.00
2022-11-22T09:09:35.817Z,3.01
2022-11-22T09:14:29.867Z,3.10
2022-11-22T09:19:32.499Z,3.15
2022-11-22T09:24:34.754Z,3.19
2022-11-22T09:29:36.559Z,3.29
2022-11-22T09:34:38.446Z,3.35
2022-11-22T09:39:45.210Z,3.39
2022-11-22T09:45:20.806Z,3.48
2022-11-22T09:50:31.833Z,3.51
2022-11-22T09:55:49.106Z,3.52
2022-11-22T10:00:53.164Z,3.51
2022-11-22T10:06:05.945Z,3.53
2022-11-22T10:11:22.062Z,3.58
2022-11-22T10:16:36.258Z,3.64
2022-11-22T10:21:38.263Z,3.74
2022-11-22T10:26:40.824Z,3.80
2022-11-22T10:32:18.044Z,3.84
2022-11-22T10:37:25.613Z,3.92
2022-11-22T10:42:53.589Z,3.97
2022-11-22T10:48:01.287Z,4.06
2022-11-22T10:53:32.107Z,4.22
2022-11-22T10:58:58.366Z,4.36
2022-11-22T11:04:03.029Z,4.31
2022-11-22T11:14:52.581Z,4.37
2022-11-22T11:19:56.794Z,4.45
2022-11-22T11:25:43.483Z,4.47
2022-11-22T11:30:47.377Z,4.45
2022-11-22T11:35:52.391Z,4.46
2022-11-22T11:40:54.950Z,4.47
2022-11-22T11:46:19.643Z,4.44
2022-11-22T11:51:50.859Z,4.34
2022-11-22T11:56:58.786Z,4.24
2022-11-22T12:02:09.534Z,4.19
2022-11-22T12:07:27.230Z,4.16
2022-11-22T12:12:51.507Z,4.12
2022-11-22T12:18:00.385Z,4.07
2022-11-22T12:23:32.538Z,4.03
2022-11-22T12:28:34.586Z,4.00
2022-11-22T12:34:08.093Z,4.00
2022-11-22T12:39:15.710Z,3.98
2022-11-22T12:44:21.009Z,3.99
2022-11-22T12:49:38.982Z,4.01
2022-11-22T12:54:53.631Z,4.01
2022-11-22T13:00:14.414Z,4.03
2022-11-22T13:05:24.474Z,4.04
2022-11-22T13:10:40.412Z,4.04
2022-11-22T13:15:45.208Z,4.02
2022-11-22T13:21:33.065Z,4.03
2022-11-22T13:26:59.024Z,4.10
2022-11-22T13:32:07.032Z,4.09
2022-11-22T13:37:17.865Z,4.09
2022-11-22T13:42:27.594Z,4.14
2022-11-22T13:47:42.891Z,4.16
2022-11-22T13:52:53.837Z,4.14
2022-11-22T13:57:55.888Z,4.18
2022-11-22T14:03:16.171Z,4.17
2022-11-22T14:08:33.513Z,4.16
2022-11-22T14:13:57.339Z,4.14
2022-11-22T14:19:32.002Z,4.11
2022-11-22T14:25:16.131Z,4.09
2022-11-22T14:30:19.537Z,4.09
2022-11-22T14:35:30.022Z,4.11
2022-11-22T14:40:40.592Z,4.10
2022-11-22T14:45:55.572Z,4.08
2022-11-22T14:51:30.748Z,4.08
2022-11-22T14:56:37.705Z,4.05
2022-11-22T15:01:52.507Z,4.04
2022-11-22T15:09:24.044Z,4.02
2022-11-22T15:12:41.711Z,4.04
2022-11-22T16:01:57.769Z,3.97
2022-11-22T16:07:02.892Z,3.97
2022-11-22T16:12:24.148Z,3.95
2022-11-22T16:17:33.291Z,3.93
2022-11-22T16:22:35.232Z,3.92
2022-11-22T16:27:45.289Z,3.91
2022-11-22T16:32:53.963Z,3.88
2022-11-22T16:37:56.110Z,3.85
2022-11-22T16:42:58.002Z,3.83
2022-11-22T16:48:24.574Z,3.79
2022-11-22T16:53:22.078Z,3.78
2022-11-22T16:58:23.944Z,3.75
2022-11-22T17:03:29.858Z,3.73
2022-11-22T17:08:31.784Z,3.73
2022-11-22T17:13:33.745Z,3.71
2022-11-22T17:18:35.555Z,3.65
2022-11-22T17:23:39.197Z,3.63
2022-11-22T17:28:41.613Z,3.58
2022-11-22T17:33:43.950Z,3.56
2022-11-22T17:38:45.962Z,3.55
2022-11-22T17:43:48.016Z,3.54
2022-11-22T17:48:53.106Z,3.53
2022-11-22T17:53:55.785Z,3.49
2022-11-22T17:58:57.588Z,3.46
2022-11-22T18:03:59.560Z,3.46
2022-11-22T18:09:01.609Z,3.46
2022-11-22T18:14:04.644Z,3.44
2022-11-22T18:19:06.923Z,3.42
2022-11-22T18:24:09.326Z,3.35
2022-11-22T18:34:35.737Z,3.25
2022-11-22T18:39:39.886Z,3.18
2022-11-22T18:44:43.282Z,3.16
2022-11-22T18:49:45.685Z,3.19
2022-11-22T18:54:48.581Z,3.21
2022-11-22T18:59:50.772Z,3.27
2022-11-22T19:04:54.239Z,3.31
2022-11-22T19:09:57.376Z,3.35
2022-11-22T19:14:59.323Z,3.36
2022-11-22T19:20:01.082Z,3.38
2022-11-22T19:25:03.021Z,3.39
2022-11-22T19:30:05.531Z,3.40
2022-11-22T19:35:08.381Z,3.44
2022-11-22T19:40:11.177Z,3.46
2022-11-22T19:45:13.008Z,3.51
2022-11-22T19:50:14.764Z,3.52
2022-11-22T19:55:16.667Z,3.54
2022-11-22T20:00:18.530Z,3.56
2022-11-22T20:05:20.538Z,3.58
2022-11-22T20:10:22.787Z,3.59
2022-11-22T20:15:25.594Z,3.59
2022-11-22T20:20:27.514Z,3.60
2022-11-22T20:25:29.286Z,3.58
2022-11-22T20:30:31.072Z,3.57
2022-11-22T20:35:32.949Z,3.55
2022-11-22T20:40:34.728Z,3.55
2022-11-22T20:45:36.824Z,3.55
2022-11-22T20:50:38.610Z,3.54
2022-11-22T20:55:40.492Z,3.52
2022-11-22T21:00:44.808Z,3.48
2022-11-22T21:05:50.430Z,3.44
2022-11-22T21:10:52.279Z,3.41
2022-11-22T21:16:08.772Z,3.39
2022-11-22T21:21:25.092Z,3.38
2022-11-22T21:26:27.601Z,3.38
2022-11-22T21:31:29.397Z,3.41
2022-11-22T21:36:31.207Z,3.44
2022-11-22T21:41:41.229Z,3.42
2022-11-22T21:46:44.011Z,3.42
2022-11-22T21:51:45.905Z,3.40
2022-11-22T21:56:48.111Z,3.37
2022-11-22T22:01:49.900Z,3.36
2022-11-22T22:06:51.867Z,3.34
2022-11-22T22:11:53.570Z,3.31
2022-11-22T22:16:55.399Z,3.32
2022-11-22T22:21:57.163Z,3.34
2022-11-22T22:26:58.973Z,3.37
2022-11-22T22:32:00.798Z,3.39
2022-11-22T22:37:02.758Z,3.39
2022-11-22T22:42:04.675Z,3.38
2022-11-22T22:47:06.872Z,3.38
2022-11-22T22:52:08.717Z,3.38
2022-11-22T22:57:10.596Z,3.36
2022-11-22T23:02:12.417Z,3.32
2022-11-22T23:07:14.261Z,3.28
2022-11-22T23:12:16.046Z,3.27
2022-11-22T23:17:20.698Z,3.30
2022-11-22T23:22:25.908Z,3.32
2022-11-22T23:27:28.448Z,3.32
2022-11-22T23:32:33.079Z,3.30
2022-11-22T23:37:37.940Z,3.27
2022-11-22T23:42:39.739Z,3.24
2022-11-22T23:47:41.522Z,3.19
2022-11-22T23:52:43.405Z,3.14
2022-11-22T23:57:45.225Z,3.09
